Time;durP1;ratioP1;P1;durP2;ratioP2;P2;SDS_P1;SDS_P2;PMS_P1;PMS_P2;Temp;Humidity;BMP_temperature;BMP_pressure;BME280_temperature;BME280_humidity;BME280_pressure;Samples;Min_cycle;Max_cycle;Signal;HPM_P1;HPM_P2
2022/03/17 00:01:40;;;;;;;21.30;12.38;;;;;;;11.25;69.16;101797.22;5075311;28;20035;-72
2022/03/17 00:04:06;;;;;;;20.48;12.65;;;;;;;11.25;69.44;101802.41;5093366;28;20115;-73
2022/03/17 00:06:31;;;;;;;21.20;12.80;;;;;;;11.29;69.36;101801.88;5074966;28;20165;-73
2022/03/17 00:08:57;;;;;;;20.35;13.07;;;;;;;11.24;69.53;101798.97;5074890;28;20123;-72
2022/03/17 00:11:23;;;;;;;20.63;12.45;;;;;;;11.19;69.78;101798.69;5093189;28;20103;-72
2022/03/17 00:13:49;;;;;;;21.13;12.68;;;;;;;11.14;70.05;101795.00;5093394;28;20020;-66
2022/03/17 00:16:14;;;;;;;21.17;13.20;;;;;;;11.15;70.17;101799.97;5093339;28;20446;-66
2022/03/17 00:18:39;;;;;;;20.98;13.25;;;;;;;11.18;69.72;101799.66;5093130;28;20061;-66
2022/03/17 00:21:06;;;;;;;21.88;12.65;;;;;;;11.14;70.42;101798.38;5074957;28;20032;-68
2022/03/17 00:23:31;;;;;;;20.13;12.77;;;;;;;11.18;70.75;101801.44;5093175;28;20024;-67
2022/03/17 00:25:57;;;;;;;21.77;12.93;;;;;;;11.13;70.91;101796.75;5093063;28;20024;-67
2022/03/17 00:28:22;;;;;;;18.73;12.93;;;;;;;11.15;71.33;101805.16;5093211;28;20379;-68
2022/03/17 00:30:48;;;;;;;22.98;12.48;;;;;;;11.10;71.36;101794.50;5092248;28;20028;-69
2022/03/17 00:33:13;;;;;;;21.05;13.23;;;;;;;11.11;71.55;101790.94;5092222;28;20377;-67
2022/03/17 00:35:38;;;;;;;22.08;13.30;;;;;;;10.98;72.20;101790.63;5074065;28;20478;-68
2022/03/17 00:38:07;;;;;;;23.15;13.52;;;;;;;11.07;72.53;101800.00;5092778;28;20035;-67
2022/03/17 00:40:37;;;;;;;18.80;13.10;;;;;;;11.04;72.78;101821.81;5074793;28;20024;-66
2022/03/17 00:43:04;;;;;;;22.55;13.23;;;;;;;11.01;73.34;101818.75;5093200;28;20074;-67
2022/03/17 00:45:29;;;;;;;19.00;13.88;;;;;;;11.02;73.26;101808.25;5093026;28;20479;-66
2022/03/17 00:47:55;;;;;;;23.25;13.57;;;;;;;11.00;73.53;101817.16;5074679;28;20066;-67
2022/03/17 00:50:20;;;;;;;22.35;13.20;;;;;;;11.00;73.47;101817.16;5074764;28;20046;-66
2022/03/17 00:52:46;;;;;;;22.20;13.60;;;;;;;10.97;73.82;101826.03;5095317;28;20024;-67
2022/03/17 00:55:11;;;;;;;25.35;14.40;;;;;;;10.93;73.95;101809.22;5096687;28;20015;-66
2022/03/17 00:57:37;;;;;;;26.77;14.43;;;;;;;10.95;73.93;101803.91;5077990;28;20494;-66
2022/03/17 01:00:08;;;;;;;21.95;13.75;;;;;;;10.91;73.96;101802.63;5096646;28;20059;-66
2022/03/17 01:02:34;;;;;;;22.08;13.85;;;;;;;10.95;73.83;101809.06;5096303;28;20020;-67
2022/03/17 01:04:59;;;;;;;22.70;13.32;;;;;;;10.93;73.49;101811.81;5096348;28;20370;-66
2022/03/17 01:07:24;;;;;;;20.15;13.68;;;;;;;10.96;73.50;101796.00;5096270;28;20028;-67
2022/03/17 01:09:50;;;;;;;23.63;13.63;;;;;;;10.91;73.64;101800.03;5096009;28;20107;-67
2022/03/17 01:12:15;;;;;;;21.92;14.05;;;;;;;10.90;73.43;101799.22;5095851;28;20524;-67
2022/03/17 01:14:41;;;;;;;22.25;14.00;;;;;;;10.93;73.54;101801.47;5096264;28;20024;-74
2022/03/17 01:17:06;;;;;;;25.58;14.05;;;;;;;10.95;73.65;101798.72;5096065;28;20020;-73
2022/03/17 01:19:31;;;;;;;21.17;13.77;;;;;;;10.93;73.60;101798.06;5096000;28;20103;-74
2022/03/17 01:21:57;;;;;;;22.63;14.15;;;;;;;10.93;73.54;101787.72;5095858;28;20024;-72
2022/03/17 01:24:22;;;;;;;25.40;13.95;;;;;;;10.92;73.80;101804.22;5095868;28;20028;-72
2022/03/17 01:26:47;;;;;;;20.02;13.50;;;;;;;10.92;73.59;101791.31;5095804;28;20435;-73
2022/03/17 01:29:13;;;;;;;22.55;14.27;;;;;;;10.96;73.83;101793.41;5095864;28;20052;-73
2022/03/17 01:31:39;;;;;;;23.88;13.43;;;;;;;10.98;73.75;101799.19;5095588;28;20487;-73
2022/03/17 01:34:04;;;;;;;22.90;13.82;;;;;;;10.97;73.92;101799.38;5095884;28;20103;-73
2022/03/17 01:36:30;;;;;;;24.63;13.68;;;;;;;10.99;74.08;101800.00;5095821;28;20032;-73
2022/03/17 01:38:56;;;;;;;24.77;13.73;;;;;;;10.97;74.40;101796.78;5095736;28;20020;-73
2022/03/17 01:41:22;;;;;;;22.63;14.18;;;;;;;10.95;74.30;101798.72;5095506;28;20028;-72
2022/03/17 01:43:47;;;;;;;21.85;13.40;;;;;;;11.01;74.37;101790.31;5094749;28;20032;-73
2022/03/17 01:46:15;;;;;;;27.00;14.60;;;;;;;11.04;74.34;101793.38;5077213;28;20470;-73
2022/03/17 01:48:41;;;;;;;21.83;14.13;;;;;;;10.97;74.61;101797.59;5095397;28;20402;-72
2022/03/17 01:51:07;;;;;;;25.45;15.32;;;;;;;11.02;74.81;101791.94;5095605;28;20093;-71
2022/03/17 01:53:33;;;;;;;24.83;15.35;;;;;;;11.01;75.42;101798.88;5095140;28;20028;-72
2022/03/17 01:55:59;;;;;;;28.30;13.90;;;;;;;11.00;75.79;101799.84;5095350;28;20035;-72
2022/03/17 01:58:24;;;;;;;24.30;14.07;;;;;;;11.04;75.78;101802.91;5095089;28;20024;-72
2022/03/17 02:00:50;;;;;;;29.50;14.65;;;;;;;11.02;76.10;101803.09;5095088;28;20429;-72
2022/03/17 02:03:16;;;;;;;26.15;15.15;;;;;;;11.02;76.53;101810.06;5093611;28;20516;-72
2022/03/17 02:05:43;;;;;;;23.25;13.82;;;;;;;11.04;76.30;101808.88;5094925;28;20043;-73
2022/03/17 02:08:10;;;;;;;30.20;15.25;;;;;;;10.98;77.84;101814.72;5095028;28;20023;-72
2022/03/17 02:13:08;;;;;;;25.00;15.70;;;;;;;10.97;78.01;101805.34;5095010;28;20478;-72
2022/03/17 02:13:22;;;;;;;23.05;14.65;;;;;;;10.97;79.38;101812.31;5094957;28;20031;-72
2022/03/17 02:15:54;;;;;;;31.02;16.23;;;;;;;10.93;80.59;101814.41;5094883;28;20027;-72
2022/03/17 02:18:21;;;;;;;30.85;16.33;;;;;;;10.89;82.00;101815.72;5094936;28;20092;-72
2022/03/17 02:20:47;;;;;;;29.38;16.20;;;;;;;10.84;83.34;101826.53;5076496;28;20024;-72
2022/03/17 02:25:59;;;;;;;32.80;17.33;;;;;;;10.61;86.63;101831.53;5094956;28;20118;-72
2022/03/17 02:28:26;;;;;;;30.48;18.20;;;;;;;10.63;87.68;101825.41;5094839;28;20077;-72
2022/03/17 02:30:52;;;;;;;33.63;18.77;;;;;;;10.47;89.52;101829.63;5094799;28;20028;-72
2022/03/17 02:33:18;;;;;;;33.03;18.67;;;;;;;10.36;90.51;101838.50;5094666;28;20081;-73
2022/03/17 02:35:45;;;;;;;32.95;19.10;;;;;;;10.41;91.62;101840.56;5094736;28;20398;-73
2022/03/17 02:38:14;;;;;;;33.72;20.50;;;;;;;10.37;92.22;101840.09;5076417;28;20031;-72
2022/03/17 02:40:41;;;;;;;35.58;19.83;;;;;;;10.32;92.90;101839.75;5094216;28;20078;-73
2022/03/17 02:43:07;;;;;;;34.42;19.60;;;;;;;10.19;93.31;101810.19;5093061;28;20016;-73
2022/03/17 02:45:34;;;;;;;35.47;19.95;;;;;;;10.30;94.30;101840.88;5094290;28;20103;-73
2022/03/17 02:47:59;;;;;;;34.47;20.38;;;;;;;10.14;95.34;101847.59;5092818;28;20032;-72
2022/03/17 02:50:25;;;;;;;39.40;21.42;;;;;;;10.20;95.85;101853.13;5076308;28;20046;-72
2022/03/17 02:52:50;;;;;;;39.22;20.45;;;;;;;10.13;96.37;101860.69;5094405;28;20031;-72
2022/03/17 02:55:16;;;;;;;35.90;18.90;;;;;;;9.99;97.09;101875.00;5093109;28;20042;-72
2022/03/17 02:57:44;;;;;;;26.00;15.00;;;;;;;9.99;96.64;101893.09;5076208;28;20012;-72
2022/03/17 03:00:11;;;;;;;24.35;13.05;;;;;;;9.93;96.23;101894.50;5076101;28;20497;-72
2022/03/17 03:02:37;;;;;;;16.30;9.70;;;;;;;9.60;95.68;101878.06;5094124;28;20474;-72
2022/03/17 03:05:04;;;;;;;10.45;6.60;;;;;;;9.45;93.96;101901.03;5075938;28;20431;-72
2022/03/17 03:07:29;;;;;;;9.80;6.35;;;;;;;9.23;94.38;101930.69;5075828;28;20069;-72
2022/03/17 03:09:55;;;;;;;10.35;5.00;;;;;;;9.12;93.65;101924.97;5093951;28;20451;-72
2022/03/17 03:12:20;;;;;;;11.80;4.90;;;;;;;8.97;93.31;101924.69;5093742;28;20032;-72
2022/03/17 03:14:47;;;;;;;10.50;4.80;;;;;;;8.94;93.18;101932.72;5093508;28;20069;-72
2022/03/17 03:17:12;;;;;;;8.57;4.72;;;;;;;8.94;93.75;101943.84;5094093;28;20020;-72
2022/03/17 03:19:37;;;;;;;8.38;5.07;;;;;;;9.00;94.30;101945.81;5075762;28;20031;-72
2022/03/17 03:22:03;;;;;;;7.93;4.50;;;;;;;8.90;93.62;101944.31;5093955;28;20049;-72
2022/03/17 03:24:28;;;;;;;7.40;4.55;;;;;;;8.85;93.75;101962.78;5075676;28;20062;-72
2022/03/17 03:26:53;;;;;;;7.95;3.60;;;;;;;8.50;94.38;101973.84;5075572;28;20474;-72
2022/03/17 03:29:27;;;;;;;7.82;4.20;;;;;;;8.57;94.32;101980.88;5093920;28;20039;-72
2022/03/17 03:32:06;;;;;;;6.25;3.75;;;;;;;8.61;94.22;101996.03;5093692;28;20024;-72
2022/03/17 03:34:32;;;;;;;6.72;3.60;;;;;;;8.49;94.03;102005.72;5075575;28;20073;-72
2022/03/17 03:39:42;;;;;;;5.25;3.70;;;;;;;8.50;94.64;102015.88;5094169;28;20081;-72
2022/03/17 03:42:09;;;;;;;9.48;3.53;;;;;;;8.33;93.85;102021.75;5093583;28;20111;-72
2022/03/17 03:44:36;;;;;;;7.32;4.13;;;;;;;8.44;94.14;102031.09;5093461;28;20023;-72
2022/03/17 03:47:01;;;;;;;6.93;3.50;;;;;;;8.43;94.58;102034.59;5075006;28;20024;-72
2022/03/17 03:49:27;;;;;;;8.00;3.97;;;;;;;8.34;94.32;102046.53;5093248;28;20434;-72
2022/03/17 03:51:52;;;;;;;5.95;3.75;;;;;;;8.36;94.11;102047.22;5075533;28;20020;-72
2022/03/17 03:54:17;;;;;;;10.25;4.18;;;;;;;8.31;93.37;102049.41;5093345;28;20474;-72
2022/03/17 03:56:46;;;;;;;8.60;4.70;;;;;;;8.26;93.52;102072.22;5093634;28;20070;-72
2022/03/17 03:59:22;;;;;;;7.95;4.88;;;;;;;8.28;94.00;102083.16;5075259;28;20058;-72
2022/03/17 04:01:50;;;;;;;11.32;5.00;;;;;;;8.32;93.65;102079.38;5093452;28;20020;-72
2022/03/17 04:04:19;;;;;;;12.05;5.88;;;;;;;8.17;92.98;102094.47;5093241;28;20051;-72
2022/03/17 04:06:47;;;;;;;14.18;6.75;;;;;;;8.21;93.01;102097.56;5093436;28;20116;-72
2022/03/17 04:09:13;;;;;;;12.85;6.60;;;;;;;8.27;93.00;102108.13;5093211;28;20058;-72
2022/03/17 04:11:43;;;;;;;11.18;6.07;;;;;;;8.28;92.36;102119.22;5093124;28;20031;-72
2022/03/17 04:14:09;;;;;;;12.63;6.40;;;;;;;8.28;92.09;102129.53;5074988;28;20057;-72
2022/03/17 04:16:35;;;;;;;16.98;7.07;;;;;;;8.29;91.82;102138.91;5075304;28;20058;-72
2022/03/17 04:19:01;;;;;;;13.57;6.85;;;;;;;8.35;91.09;102136.56;5093204;28;20024;-72
2022/03/17 04:21:26;;;;;;;16.75;7.45;;;;;;;8.20;91.05;102145.69;5075193;28;20024;-72
2022/03/17 04:23:51;;;;;;;12.05;7.15;;;;;;;8.16;91.64;102148.66;5093012;28;20417;-72
2022/03/17 04:26:17;;;;;;;22.27;7.78;;;;;;;8.17;91.55;102153.69;5094573;28;20378;-72
2022/03/17 04:28:42;;;;;;;19.00;7.60;;;;;;;8.10;91.96;102135.38;5097062;28;20107;-72
2022/03/17 04:31:08;;;;;;;19.42;7.45;;;;;;;8.23;91.50;102155.72;5097193;28;20032;-72
2022/03/17 04:33:33;;;;;;;17.30;7.07;;;;;;;8.18;92.02;102167.38;5096855;28;20438;-72
2022/03/17 04:35:59;;;;;;;17.92;7.32;;;;;;;8.16;91.54;102167.50;5096943;28;20056;-72
2022/03/17 04:38:25;;;;;;;18.95;7.10;;;;;;;8.26;91.57;102172.66;5096816;28;20111;-72
2022/03/17 04:40:50;;;;;;;19.02;5.95;;;;;;;8.29;91.04;102180.09;5078584;28;20040;-72
2022/03/17 04:43:17;;;;;;;17.17;5.60;;;;;;;8.24;90.61;102195.16;5096886;28;20028;-72
2022/03/17 04:45:44;;;;;;;15.68;4.28;;;;;;;8.09;90.29;102194.75;5096848;28;20031;-72
2022/03/17 04:48:09;;;;;;;11.98;3.72;;;;;;;8.00;88.46;102201.53;5096211;28;20024;-72
2022/03/17 04:50:35;;;;;;;18.35;3.67;;;;;;;8.09;88.21;102211.00;5078473;28;20028;-72
2022/03/17 04:55:44;;;;;;;19.50;3.38;;;;;;;7.94;88.77;102227.81;5096736;28;20039;-73
2022/03/17 04:58:09;;;;;;;21.70;3.25;;;;;;;7.99;88.68;102230.78;5096369;28;20028;-72
2022/03/17 05:00:34;;;;;;;10.23;2.85;;;;;;;8.01;88.69;102240.94;5096521;28;20024;-73
2022/03/17 05:03:00;;;;;;;15.10;3.80;;;;;;;7.93;88.20;102244.19;5096423;28;20028;-73
2022/03/17 05:05:25;;;;;;;18.40;3.20;;;;;;;7.96;87.99;102258.56;5078084;28;20072;-72
2022/03/17 05:07:56;;;;;;;13.13;2.90;;;;;;;7.93;87.57;102269.13;5096067;28;20016;-72
2022/03/17 05:10:21;;;;;;;12.13;2.72;;;;;;;7.94;87.27;102269.00;5078308;28;20024;-72
2022/03/17 05:12:46;;;;;;;10.18;2.20;;;;;;;7.93;86.22;102275.06;5078037;28;20161;-72
2022/03/17 05:15:12;;;;;;;12.73;2.22;;;;;;;7.83;85.51;102280.22;5078378;28;20020;-72
2022/03/17 05:17:40;;;;;;;15.18;2.15;;;;;;;7.82;86.09;102283.72;5096025;28;20032;-72
2022/03/17 05:20:12;;;;;;;17.08;2.20;;;;;;;7.83;85.31;102300.00;5095889;28;20463;-72
2022/03/17 05:22:39;;;;;;;15.25;2.65;;;;;;;7.83;85.50;102305.16;5095979;28;20409;-72
2022/03/17 05:25:05;;;;;;;13.98;2.50;;;;;;;7.85;85.61;102316.09;5077861;28;20028;-72
2022/03/17 05:27:31;;;;;;;11.05;1.80;;;;;;;7.77;84.73;102321.09;5095895;28;20020;-72
2022/03/17 05:29:56;;;;;;;11.23;1.92;;;;;;;7.88;84.65;102326.97;5096161;28;20027;-72
2022/03/17 05:32:21;;;;;;;12.98;2.20;;;;;;;7.86;85.84;102338.34;5095831;28;20024;-72
2022/03/17 05:34:47;;;;;;;13.93;2.22;;;;;;;7.86;85.76;102341.72;5077515;28;20024;-73
2022/03/17 05:37:13;;;;;;;17.60;3.33;;;;;;;7.69;87.12;102352.63;5095146;28;20095;-72
2022/03/17 05:39:38;;;;;;;15.65;2.53;;;;;;;7.65;86.60;102354.66;5077223;28;20548;-72
2022/03/17 05:42:04;;;;;;;15.73;2.80;;;;;;;7.70;86.87;102359.41;5095622;28;20417;-72
2022/03/17 05:44:29;;;;;;;14.63;2.10;;;;;;;7.79;87.23;102371.47;5095546;28;20039;-72
2022/03/17 05:46:54;;;;;;;14.50;2.15;;;;;;;7.60;87.48;102366.28;5077449;28;20020;-72
2022/03/17 05:49:19;;;;;;;13.80;2.50;;;;;;;7.57;87.33;102371.69;5095589;28;20132;-72
2022/03/17 05:51:45;;;;;;;17.10;2.30;;;;;;;7.60;87.49;102386.84;5095782;28;20429;-72
2022/03/17 05:54:11;;;;;;;13.13;2.38;;;;;;;7.74;87.27;102395.97;5095516;28;20107;-72
2022/03/17 05:56:36;;;;;;;16.35;2.17;;;;;;;7.66;86.66;102406.94;5095399;28;20455;-72
2022/03/17 05:59:02;;;;;;;13.80;2.47;;;;;;;7.75;88.08;102405.34;5095219;28;20501;-72
2022/03/17 06:01:27;;;;;;;16.02;2.58;;;;;;;7.75;87.22;102403.59;5095380;28;20030;-73
2022/03/17 06:03:53;;;;;;;15.18;2.33;;;;;;;7.66;86.57;102422.38;5095232;28;20020;-73
2022/03/17 06:06:18;;;;;;;12.68;2.10;;;;;;;7.72;86.30;102419.28;5094917;28;20498;-73
2022/03/17 06:08:43;;;;;;;14.20;2.40;;;;;;;7.73;86.26;102431.19;5077047;28;20035;-72
2022/03/17 06:11:08;;;;;;;19.27;2.75;;;;;;;7.63;85.79;102443.22;5095237;28;20026;-72
2022/03/17 06:13:34;;;;;;;14.15;2.22;;;;;;;7.73;86.57;102441.47;5094950;28;20378;-73
2022/03/17 06:15:59;;;;;;;18.48;2.50;;;;;;;7.76;85.56;102448.13;5095002;28;20070;-73
2022/03/17 06:18:24;;;;;;;18.70;2.40;;;;;;;7.76;85.31;102454.09;5094857;28;20605;-73
2022/03/17 06:20:49;;;;;;;15.77;2.25;;;;;;;7.66;84.74;102455.81;5076531;28;20020;-73
2022/03/17 06:23:15;;;;;;;19.02;2.80;;;;;;;7.73;84.31;102463.84;5094912;28;20054;-73
2022/03/17 06:25:40;;;;;;;20.10;2.20;;;;;;;7.76;83.73;102473.88;5094896;28;20023;-73
2022/03/17 06:28:07;;;;;;;11.95;2.50;;;;;;;7.74;83.26;102479.16;5094715;28;20020;-73
2022/03/17 06:30:35;;;;;;;16.42;3.95;;;;;;;7.81;83.52;102489.75;5094809;28;20428;-72
2022/03/17 06:33:01;;;;;;;16.23;2.65;;;;;;;7.87;82.86;102481.53;5076486;28;20432;-72
2022/03/17 06:35:27;;;;;;;12.75;2.40;;;;;;;7.81;81.94;102498.28;5076359;28;20069;-73
2022/03/17 06:37:58;;;;;;;12.55;2.05;;;;;;;7.74;82.09;102504.91;5094693;28;20028;-73
2022/03/17 06:40:25;;;;;;;13.93;2.40;;;;;;;7.78;82.69;102508.03;5076922;28;20024;-74
2022/03/17 06:42:51;;;;;;;13.43;2.30;;;;;;;7.79;84.28;102525.91;5095164;28;20028;-73
2022/03/17 06:45:18;;;;;;;19.42;3.75;;;;;;;7.56;85.86;102532.91;5076716;28;20028;-73
2022/03/17 06:47:44;;;;;;;16.30;2.53;;;;;;;7.56;84.87;102530.34;5094625;28;20020;-73
2022/03/17 06:50:11;;;;;;;14.77;2.30;;;;;;;7.55;84.45;102533.88;5075185;28;20402;-73
2022/03/17 06:52:37;;;;;;;19.33;2.60;;;;;;;7.64;84.49;102556.28;5075997;28;20020;-75
2022/03/17 06:55:03;;;;;;;16.13;1.98;;;;;;;7.69;83.69;102561.06;5094554;28;20375;-74
2022/03/17 06:57:28;;;;;;;16.27;2.67;;;;;;;7.88;82.67;102560.38;5094184;28;20020;-73
2022/03/17 06:59:54;;;;;;;15.50;2.40;;;;;;;7.67;81.51;102557.78;5094538;28;20020;-74
2022/03/17 07:02:19;;;;;;;16.40;2.42;;;;;;;7.84;80.13;102579.59;5076058;28;20123;-74
2022/03/17 07:04:45;;;;;;;13.10;1.90;;;;;;;7.86;78.18;102588.81;5094080;28;20042;-74
2022/03/17 07:07:11;;;;;;;12.70;2.15;;;;;;;7.81;78.59;102583.22;5094029;28;20471;-73
2022/03/17 07:09:37;;;;;;;8.25;1.33;;;;;;;7.76;76.72;102587.13;5076029;28;20119;-73
2022/03/17 07:12:03;;;;;;;14.40;1.48;;;;;;;7.96;75.76;102599.19;5093924;28;20020;-73
2022/03/17 07:14:29;;;;;;;10.70;1.85;;;;;;;7.97;75.94;102611.13;5075821;28;20031;-73
2022/03/17 07:16:55;;;;;;;14.48;1.75;;;;;;;7.93;75.58;102604.59;5092654;28;20061;-72
2022/03/17 07:19:20;;;;;;;12.52;1.85;;;;;;;7.89;73.49;102610.94;5076036;28;20437;-73
2022/03/17 07:21:46;;;;;;;10.55;1.52;;;;;;;7.86;73.95;102611.19;5075733;28;20078;-73
2022/03/17 07:24:11;;;;;;;11.80;1.67;;;;;;;7.95;74.07;102623.31;5094082;28;20028;-75
2022/03/17 07:26:37;;;;;;;8.75;1.63;;;;;;;7.87;75.50;102629.06;5075482;28;20035;-74
2022/03/17 07:29:03;;;;;;;11.82;1.98;;;;;;;7.93;75.05;102640.63;5093870;28;20059;-76
2022/03/17 07:31:29;;;;;;;12.40;1.92;;;;;;;7.90;74.87;102635.72;5075915;28;20119;-73
2022/03/17 07:33:54;;;;;;;10.70;2.55;;;;;;;8.14;74.54;102644.03;5075550;28;20406;-74
2022/03/17 07:36:21;;;;;;;12.93;1.83;;;;;;;8.40;73.22;102648.00;5093461;28;20047;-73
2022/03/17 07:38:46;;;;;;;10.25;1.88;;;;;;;8.25;73.48;102655.22;5093177;28;20035;-74
2022/03/17 07:41:13;;;;;;;13.68;1.80;;;;;;;8.24;72.30;102653.59;5093735;28;20068;-73
2022/03/17 07:43:40;;;;;;;13.13;1.77;;;;;;;8.51;72.80;102651.31;5093246;28;20077;-73
2022/03/17 07:46:05;;;;;;;6.35;1.70;;;;;;;8.50;73.47;102665.16;5074267;28;20031;-74
2022/03/17 07:48:31;;;;;;;12.25;1.90;;;;;;;8.47;73.86;102673.16;5066620;28;20392;-74
2022/03/17 07:50:56;;;;;;;17.23;2.33;;;;;;;8.62;72.34;102673.63;5051585;28;20048;-73
2022/03/17 07:53:21;;;;;;;16.52;2.17;;;;;;;8.82;72.37;102677.94;5051780;28;20025;-74
2022/03/17 07:55:47;;;;;;;14.35;2.30;;;;;;;9.17;72.26;102683.66;5051976;28;20112;-73
2022/03/17 07:58:13;;;;;;;11.90;2.08;;;;;;;9.14;71.03;102687.28;5051596;28;20017;-74
2022/03/17 08:00:40;;;;;;;14.18;2.40;;;;;;;9.13;70.86;102684.88;5052455;28;20029;-74
2022/03/17 08:03:05;;;;;;;13.40;2.00;;;;;;;8.94;71.90;102698.50;5057186;28;20027;-73
2022/03/17 08:05:31;;;;;;;8.85;2.00;;;;;;;8.84;73.30;102698.44;5057197;28;20040;-74
2022/03/17 08:07:56;;;;;;;13.00;2.40;;;;;;;8.67;72.62;102699.03;5055967;28;20366;-75
2022/03/17 08:10:22;;;;;;;12.23;1.92;;;;;;;8.37;73.58;102716.03;5056057;28;20479;-74
2022/03/17 08:12:48;;;;;;;16.35;2.15;;;;;;;8.42;74.25;102729.38;5055775;28;20031;-74
2022/03/17 08:15:14;;;;;;;11.75;2.15;;;;;;;8.40;74.08;102730.44;5055721;28;20478;-73
2022/03/17 08:17:39;;;;;;;15.38;2.47;;;;;;;8.32;74.86;102738.78;5056912;28;20048;-72
2022/03/17 08:20:05;;;;;;;11.00;2.25;;;;;;;8.26;75.80;102742.69;5057013;28;20448;-73
2022/03/17 08:22:32;;;;;;;13.18;2.08;;;;;;;8.30;76.02;102740.66;5057194;28;20033;-77
2022/03/17 08:24:57;;;;;;;13.63;2.20;;;;;;;8.41;76.77;102743.22;5055657;28;20464;-73
2022/03/17 08:27:23;;;;;;;12.93;2.28;;;;;;;8.25;76.48;102755.66;5057314;28;20086;-74
2022/03/17 08:29:48;;;;;;;19.23;2.50;;;;;;;8.35;76.39;102764.31;5057833;28;20502;-75
2022/03/17 08:32:14;;;;;;;13.93;2.38;;;;;;;8.38;75.76;102771.78;5057236;28;20028;-74
2022/03/17 08:34:39;;;;;;;8.20;1.95;;;;;;;8.39;74.79;102770.06;5057446;28;20025;-73
2022/03/17 08:37:05;;;;;;;18.27;2.30;;;;;;;8.29;74.28;102786.22;5056212;28;20434;-74
2022/03/17 08:39:31;;;;;;;14.20;2.10;;;;;;;8.64;72.67;102787.75;5054888;28;20060;-74
2022/03/17 08:41:56;;;;;;;15.85;2.00;;;;;;;9.27;70.46;102791.09;5054736;28;20104;-73
2022/03/17 08:44:22;;;;;;;12.38;1.92;;;;;;;9.72;69.07;102802.78;5056377;28;20074;-73
2022/03/17 08:49:33;;;;;;;11.93;2.30;;;;;;;9.11;70.76;102820.88;5083700;28;20047;-74
2022/03/17 08:51:59;;;;;;;10.85;2.10;;;;;;;8.99;70.18;102812.38;5096065;28;20024;-73
2022/03/17 08:54:27;;;;;;;13.38;2.10;;;;;;;9.16;71.97;102818.72;5078349;28;20035;-73
2022/03/17 08:57:01;;;;;;;18.25;2.05;;;;;;;9.31;71.46;102822.59;5096077;28;20468;-75
2022/03/17 08:59:31;;;;;;;16.10;2.25;;;;;;;9.23;71.97;102818.06;5077972;28;20023;-74
2022/03/17 09:02:12;;;;;;;13.40;2.08;;;;;;;9.34;72.35;102826.69;5096067;28;20031;-74
2022/03/17 09:04:38;;;;;;;14.88;2.10;;;;;;;9.24;72.77;102827.47;5078532;28;20479;-73
2022/03/17 09:07:04;;;;;;;7.13;1.73;;;;;;;9.46;72.82;102841.13;5076997;28;20084;-74
2022/03/17 09:09:33;;;;;;;12.00;2.00;;;;;;;9.33;73.00;102851.69;5096643;28;20032;-73
2022/03/17 09:12:01;;;;;;;11.82;2.45;;;;;;;9.65;72.12;102855.91;5077916;28;20016;-74
2022/03/17 09:14:26;;;;;;;13.20;2.28;;;;;;;11.80;66.53;102862.66;5095867;28;20364;-75
2022/03/17 09:16:52;;;;;;;14.38;2.28;;;;;;;11.59;62.56;102866.25;5096432;28;20077;-75
2022/03/17 09:19:20;;;;;;;8.80;2.25;;;;;;;11.90;61.33;102868.59;5077988;28;20028;-76
2022/03/17 09:21:47;;;;;;;15.38;2.72;;;;;;;12.23;59.88;102881.91;5077017;28;20059;-74
2022/03/17 09:24:12;;;;;;;8.45;2.20;;;;;;;15.40;52.65;102885.09;5076437;28;20027;-73
2022/03/17 09:26:38;;;;;;;11.88;2.35;;;;;;;18.56;44.71;102891.13;5096285;28;20024;-74
2022/03/17 09:29:03;;;;;;;7.65;2.00;;;;;;;14.83;50.65;102897.22;5095881;28;20043;-74
2022/03/17 09:31:29;;;;;;;9.45;2.10;;;;;;;19.04;40.97;102898.34;5096043;28;20036;-74
2022/03/17 09:33:55;;;;;;;8.90;2.00;;;;;;;18.23;42.04;102909.94;5096520;28;20482;-75
2022/03/17 09:36:21;;;;;;;7.32;1.83;;;;;;;18.51;41.79;102901.34;5095655;28;20020;-74
2022/03/17 09:39:42;;;;;;;9.98;2.30;;;;;;;17.51;44.36;102909.88;5077597;28;20390;-75
2022/03/17 09:41:35;;;;;;;11.02;2.20;;;;;;;19.39;39.48;102914.88;5095285;28;20081;-74
2022/03/17 09:44:02;;;;;;;13.18;1.95;;;;;;;16.26;45.50;102889.44;5095524;28;20028;-74
2022/03/17 09:46:28;;;;;;;9.48;2.10;;;;;;;13.45;52.46;102903.69;5077128;28;20020;-73
2022/03/17 09:48:57;;;;;;;9.60;2.88;;;;;;;15.43;50.05;102909.03;5077170;28;20044;-75
2022/03/17 09:51:25;;;;;;;8.52;2.25;;;;;;;18.13;42.77;102924.34;5095516;28;20019;-74
2022/03/17 09:53:58;;;;;;;11.60;2.20;;;;;;;15.42;48.25;102901.38;5094625;28;20119;-75
2022/03/17 09:56:24;;;;;;;10.95;2.25;;;;;;;12.96;54.23;102913.72;5077349;28;20027;-74
2022/03/17 09:58:54;;;;;;;8.18;2.30;;;;;;;13.21;55.55;102922.50;5095659;28;20047;-74
2022/03/17 10:01:21;;;;;;;10.23;2.53;;;;;;;13.12;54.17;102914.78;5077331;28;20578;-73
2022/03/17 10:03:47;;;;;;;9.32;2.20;;;;;;;13.69;52.99;102912.56;5076562;28;20048;-74
2022/03/17 10:06:14;;;;;;;15.90;2.38;;;;;;;13.73;53.36;102921.69;5094798;28;20059;-74
2022/03/17 10:08:41;;;;;;;9.70;1.95;;;;;;;13.71;52.24;102931.41;5094117;28;20024;-74
2022/03/17 10:11:06;;;;;;;11.35;2.35;;;;;;;13.94;52.20;102931.69;5093084;28;20047;-73
2022/03/17 10:13:41;;;;;;;8.48;2.30;;;;;;;13.50;50.49;102934.41;5092788;28;20122;-75
2022/03/17 10:16:13;;;;;;;14.65;2.70;;;;;;;12.93;53.99;102947.75;5093761;28;20429;-74
2022/03/17 10:18:38;;;;;;;10.70;2.38;;;;;;;13.69;51.67;102946.34;5094394;28;20493;-75
2022/03/17 10:21:08;;;;;;;7.68;2.22;;;;;;;13.83;50.76;102957.94;5076438;28;20106;-74
2022/03/17 10:23:42;;;;;;;8.18;2.28;;;;;;;13.60;49.99;102965.44;5076066;28;20498;-74
2022/03/17 10:26:07;;;;;;;10.43;2.20;;;;;;;12.92;52.29;102968.66;5094183;28;20034;-74
2022/03/17 10:28:33;;;;;;;9.07;2.08;;;;;;;12.47;55.24;102985.91;5093908;28;20083;-73
2022/03/17 10:31:03;;;;;;;10.30;1.92;;;;;;;14.13;50.33;102990.41;5094939;28;20011;-74
2022/03/17 10:33:29;;;;;;;13.05;2.03;;;;;;;14.41;49.07;102998.78;5094381;28;20045;-74
2022/03/17 10:35:54;;;;;;;7.30;1.77;;;;;;;15.15;47.35;102994.53;5093439;28;20356;-74
2022/03/17 10:38:23;;;;;;;10.43;1.90;;;;;;;15.31;46.78;103006.75;5093718;28;20028;-73
2022/03/17 10:41:03;;;;;;;6.25;1.85;;;;;;;14.20;48.47;102986.22;5091796;28;20379;-74
2022/03/17 10:43:33;;;;;;;9.48;1.83;;;;;;;15.38;48.01;103012.09;5073366;28;20020;-73
2022/03/17 10:46:16;;;;;;;6.65;1.50;;;;;;;14.02;49.17;103019.28;5092477;28;20110;-73
2022/03/17 10:49:01;;;;;;;8.20;1.75;;;;;;;14.95;47.81;103017.47;5092223;28;20047;-74
2022/03/17 10:51:40;;;;;;;8.63;2.00;;;;;;;15.26;47.37;103024.66;5091119;28;20075;-75
2022/03/17 10:54:06;;;;;;;10.43;2.10;;;;;;;13.87;48.58;103035.47;5093031;28;20078;-75
2022/03/17 10:56:32;;;;;;;8.00;1.95;;;;;;;14.22;46.70;103037.09;5093786;28;20016;-73
2022/03/17 10:58:59;;;;;;;8.77;1.92;;;;;;;14.87;46.10;103051.28;5093873;28;20099;-73
2022/03/17 11:01:47;;;;;;;6.20;1.67;;;;;;;15.36;46.13;103043.50;5075641;28;20364;-74
2022/03/17 11:04:13;;;;;;;5.60;1.80;;;;;;;14.86;47.26;103047.88;5093850;28;20536;-74
2022/03/17 11:06:39;;;;;;;9.57;1.80;;;;;;;14.58;46.77;103057.72;5093270;28;20028;-74
2022/03/17 11:09:07;;;;;;;7.03;1.70;;;;;;;14.49;48.37;103061.25;5093458;28;20404;-75
2022/03/17 11:11:32;;;;;;;10.57;2.00;;;;;;;14.81;47.98;103055.34;5093518;28;20032;-74
2022/03/17 11:13:58;;;;;;;7.25;1.85;;;;;;;14.78;46.06;103066.06;5093521;28;20075;-73
2022/03/17 11:16:35;;;;;;;7.07;1.77;;;;;;;14.39;47.13;103061.38;5075285;28;20016;-74
2022/03/17 11:19:03;;;;;;;7.18;1.98;;;;;;;15.22;45.67;103065.84;5093247;28;20036;-73
2022/03/17 11:21:30;;;;;;;7.28;1.92;;;;;;;15.73;45.30;103073.50;5092679;28;20031;-74
2022/03/17 11:24:05;;;;;;;7.78;1.90;;;;;;;15.73;45.07;103074.31;5092364;28;20024;-74
2022/03/17 11:26:39;;;;;;;8.98;2.08;;;;;;;16.30;42.95;103070.72;5073903;28;20165;-73
2022/03/17 11:29:09;;;;;;;6.00;1.92;;;;;;;14.87;45.35;103065.16;5093195;28;20031;-75
2022/03/17 11:31:58;;;;;;;8.18;2.13;;;;;;;15.77;45.96;103072.19;5093358;28;20543;-73